Time;durP1;ratioP1;P1;durP2;ratioP2;P2;SDS_P1;SDS_P2;PMS_P1;PMS_P2;Temp;Humidity;BMP_temperature;BMP_pressure;BME280_temperature;BME280_humidity;BME280_pressure;Samples;Min_cycle;Max_cycle;Signal;HPM_P1;HPM_P2
2023/03/08 00:01:37;;;;;;;24.05;12.75;;;;;;;;;;5014813;28;20021;-72
2023/03/08 00:04:03;;;;;;;21.40;12.50;;;;;;;;;;5031663;28;20041;-70
2023/03/08 00:06:28;;;;;;;20.90;11.93;;;;;;;;;;5033602;28;20059;-70
2023/03/08 00:08:59;;;;;;;24.58;12.60;;;;;;;;;;5031698;28;20034;-72
2023/03/08 00:11:26;;;;;;;17.73;11.73;;;;;;;;;;5032812;28;20405;-71
2023/03/08 00:13:51;;;;;;;28.60;13.23;;;;;;;;;;5031646;28;20033;-70
2023/03/08 00:16:17;;;;;;;21.77;11.00;;;;;;;;;;5033335;28;20108;-70
2023/03/08 00:18:43;;;;;;;20.75;10.90;;;;;;;;;;4999026;28;20028;-70
2023/03/08 00:21:12;;;;;;;20.38;10.40;;;;;;;;;;4995596;28;20034;-70
2023/03/08 00:23:39;;;;;;;26.80;12.93;;;;;;;;;;5011556;28;20038;-71
2023/03/08 00:26:04;;;;;;;21.55;11.52;;;;;;;;;;5012122;28;20022;-71
2023/03/08 00:28:30;;;;;;;19.27;10.55;;;;;;;;;;5024725;28;20087;-70
2023/03/08 00:30:58;;;;;;;20.92;11.93;;;;;;;;;;5015430;28;20491;-70
2023/03/08 00:33:24;;;;;;;29.50;12.02;;;;;;;;;;5031041;28;20076;-71
2023/03/08 00:36:17;;;;;;;26.67;12.00;;;;;;;;;;5013714;28;20034;-71
2023/03/08 00:38:43;;;;;;;22.92;11.20;;;;;;;;;;5023513;28;20045;-71
2023/03/08 00:41:09;;;;;;;18.38;10.20;;;;;;;;;;5015001;28;20317;-70
2023/03/08 00:43:36;;;;;;;27.15;10.52;;;;;;;;;;5032951;28;20048;-69
2023/03/08 00:46:03;;;;;;;21.63;10.95;;;;;;;;;;4998509;28;20435;-71
2023/03/08 00:48:28;;;;;;;17.20;11.13;;;;;;;;;;4999699;28;20038;-70
2023/03/08 00:50:54;;;;;;;21.92;11.00;;;;;;;;;;4994996;28;20545;-70
2023/03/08 00:53:20;;;;;;;21.90;11.18;;;;;;;;;;5012471;28;20030;-70
2023/03/08 00:55:49;;;;;;;18.20;11.68;;;;;;;;;;5012814;28;20032;-70
2023/03/08 00:58:16;;;;;;;21.25;10.55;;;;;;;;;;4994695;28;20033;-70
2023/03/08 01:00:42;;;;;;;17.85;11.15;;;;;;;;;;5013796;28;20026;-70
2023/03/08 01:03:08;;;;;;;15.95;10.32;;;;;;;;;;4996023;28;20125;-70
2023/03/08 01:05:38;;;;;;;23.13;11.77;;;;;;;;;;4996802;28;20125;-70
2023/03/08 01:08:04;;;;;;;15.63;10.43;;;;;;;;;;5014212;28;20033;-70
2023/03/08 01:10:30;;;;;;;16.20;8.23;;;;;;;;;;4995055;28;20022;-70
2023/03/08 01:12:55;;;;;;;15.07;8.18;;;;;;;;;;4996089;28;20034;-70
2023/03/08 01:15:21;;;;;;;12.82;7.68;;;;;;;;;;4994046;28;20058;-71
2023/03/08 01:17:47;;;;;;;14.23;7.95;;;;;;;;;;5008752;28;20085;-70
2023/03/08 01:20:12;;;;;;;12.95;8.50;;;;;;;;;;4976732;28;20027;-70
2023/03/08 01:22:39;;;;;;;14.07;8.60;;;;;;;;;;4992693;28;20042;-70
2023/03/08 01:25:05;;;;;;;18.02;9.93;;;;;;;;;;4992831;28;20484;-70
2023/03/08 01:27:31;;;;;;;18.13;10.52;;;;;;;;;;4976083;28;20489;-71
2023/03/08 01:29:56;;;;;;;15.73;10.25;;;;;;;;;;4993813;28;20081;-70
2023/03/08 01:32:23;;;;;;;19.73;10.77;;;;;;;;;;4992680;28;20034;-70
2023/03/08 01:34:48;;;;;;;17.52;10.80;;;;;;;;;;4976478;28;20054;-70
2023/03/08 01:37:14;;;;;;;25.55;11.50;;;;;;;;;;4992206;28;20455;-70
2023/03/08 01:39:41;;;;;;;17.38;12.15;;;;;;;;;;4992485;28;20022;-69
2023/03/08 01:42:07;;;;;;;18.77;11.85;;;;;;;;;;5008917;28;20034;-70
2023/03/08 01:44:53;;;;;;;22.80;11.98;;;;;;;;;;4985083;28;20053;-70
2023/03/08 01:47:23;;;;;;;25.02;12.88;;;;;;;;;;4994243;28;20064;-70
2023/03/08 01:50:11;;;;;;;24.58;14.40;;;;;;;;;;4994820;28;20041;-70
2023/03/08 01:52:47;;;;;;;23.55;15.45;;;;;;;;;;4994437;28;20041;-69
2023/03/08 01:55:14;;;;;;;26.02;15.70;;;;;;;;;;5026522;28;20033;-69
2023/03/08 01:57:47;;;;;;;25.08;14.93;;;;;;;;;;5032095;28;20467;-69
2023/03/08 02:00:15;;;;;;;24.35;13.73;;;;;;;;;;4980048;28;20064;-70
2023/03/08 02:02:50;;;;;;;19.05;12.48;;;;;;;;;;5011840;28;20030;-70
2023/03/08 02:05:17;;;;;;;17.90;11.48;;;;;;;;;;5007031;28;20069;-70
2023/03/08 02:07:45;;;;;;;18.10;11.43;;;;;;;;;;4993627;28;20495;-70
2023/03/08 02:10:12;;;;;;;17.30;11.25;;;;;;;;;;5011711;28;20042;-70
2023/03/08 02:12:39;;;;;;;18.90;11.68;;;;;;;;;;4993877;28;20038;-70
2023/03/08 02:15:07;;;;;;;16.35;10.38;;;;;;;;;;5013315;28;20384;-70
2023/03/08 02:17:37;;;;;;;16.02;10.50;;;;;;;;;;4993105;28;20033;-70
2023/03/08 02:20:29;;;;;;;13.98;10.23;;;;;;;;;;4993958;28;20032;-70
2023/03/08 02:23:10;;;;;;;15.50;9.95;;;;;;;;;;5009495;28;20065;-70
2023/03/08 02:25:36;;;;;;;16.60;10.88;;;;;;;;;;4993853;28;20030;-70
2023/03/08 02:28:03;;;;;;;16.60;11.18;;;;;;;;;;5010205;28;20076;-70
2023/03/08 02:30:32;;;;;;;17.45;11.27;;;;;;;;;;5029163;28;20216;-70
2023/03/08 02:32:57;;;;;;;16.02;10.60;;;;;;;;;;5030851;28;20333;-70
2023/03/08 02:35:27;;;;;;;16.05;10.88;;;;;;;;;;5012905;28;20038;-71
2023/03/08 02:37:53;;;;;;;22.70;12.13;;;;;;;;;;5004161;28;20566;-70
2023/03/08 02:40:19;;;;;;;19.50;12.18;;;;;;;;;;5015217;28;20026;-70
2023/03/08 02:42:44;;;;;;;21.13;13.57;;;;;;;;;;5011082;28;20022;-70
2023/03/08 02:45:10;;;;;;;22.63;13.43;;;;;;;;;;4996367;28;20089;-70
2023/03/08 02:47:37;;;;;;;22.33;12.82;;;;;;;;;;4993101;28;20033;-70
2023/03/08 02:50:04;;;;;;;18.58;11.60;;;;;;;;;;4993211;28;20036;-70
2023/03/08 02:52:30;;;;;;;20.90;11.65;;;;;;;;;;5007637;28;20030;-69
2023/03/08 02:54:56;;;;;;;17.40;10.50;;;;;;;;;;5020454;28;20044;-69
2023/03/08 02:57:23;;;;;;;24.65;11.75;;;;;;;;;;4985150;28;20066;-70
2023/03/08 02:59:50;;;;;;;18.77;11.05;;;;;;;;;;5029380;28;20059;-70
2023/03/08 03:02:16;;;;;;;21.45;12.73;;;;;;;;;;4977719;28;20399;-70
2023/03/08 03:04:42;;;;;;;20.13;12.48;;;;;;;;;;5010113;28;20096;-70
2023/03/08 03:07:08;;;;;;;16.33;11.40;;;;;;;;;;4992713;28;20472;-70
2023/03/08 03:09:35;;;;;;;17.00;10.88;;;;;;;;;;4992494;28;20037;-69
2023/03/08 03:12:01;;;;;;;19.30;11.45;;;;;;;;;;4993686;28;20025;-69
2023/03/08 03:14:30;;;;;;;19.52;12.05;;;;;;;;;;5008836;28;20112;-69
2023/03/08 03:16:57;;;;;;;19.40;12.30;;;;;;;;;;4991836;28;20030;-69
2023/03/08 03:19:23;;;;;;;18.42;12.55;;;;;;;;;;5009979;28;20369;-69
2023/03/08 03:21:48;;;;;;;21.27;12.10;;;;;;;;;;4993027;28;20196;-69
2023/03/08 03:24:14;;;;;;;16.50;11.07;;;;;;;;;;4997039;28;20558;-69
2023/03/08 03:26:45;;;;;;;21.52;11.18;;;;;;;;;;5012135;28;20028;-69
2023/03/08 03:29:11;;;;;;;15.85;11.02;;;;;;;;;;5028275;28;20034;-69
2023/03/08 03:31:40;;;;;;;17.70;11.20;;;;;;;;;;5012333;28;20022;-69
2023/03/08 03:34:06;;;;;;;16.58;10.98;;;;;;;;;;5030116;28;20037;-69
2023/03/08 03:36:33;;;;;;;20.48;11.80;;;;;;;;;;5029843;28;20582;-69
2023/03/08 03:38:59;;;;;;;19.95;12.07;;;;;;;;;;5009931;28;20108;-69
2023/03/08 03:41:25;;;;;;;20.88;11.32;;;;;;;;;;5008427;28;20112;-69
2023/03/08 03:44:00;;;;;;;17.60;11.80;;;;;;;;;;5013895;28;20037;-69
2023/03/08 03:46:27;;;;;;;21.48;11.88;;;;;;;;;;5008577;28;20496;-70
2023/03/08 03:48:55;;;;;;;25.60;13.98;;;;;;;;;;4992608;28;20030;-68
2023/03/08 03:51:23;;;;;;;21.52;12.35;;;;;;;;;;4992087;28;20069;-69
2023/03/08 03:53:57;;;;;;;17.08;11.35;;;;;;;;;;4993497;28;20037;-69
2023/03/08 03:56:26;;;;;;;22.00;12.68;;;;;;;;;;5011522;28;20045;-70
2023/03/08 03:58:55;;;;;;;20.92;12.10;;;;;;;;;;5004876;28;20018;-70
2023/03/08 04:01:26;;;;;;;24.20;12.52;;;;;;;;;;5011612;28;20053;-70
2023/03/08 04:03:57;;;;;;;19.88;11.82;;;;;;;;;;5028643;28;20044;-70
2023/03/08 04:06:29;;;;;;;20.75;12.07;;;;;;;;;;5011896;28;20041;-70
2023/03/08 04:09:02;;;;;;;25.40;11.75;;;;;;;;;;5028413;28;20043;-70
2023/03/08 04:11:36;;;;;;;27.33;13.52;;;;;;;;;;5000488;28;20491;-70
2023/03/08 04:14:03;;;;;;;12.43;7.50;;;;;;;;;;4991423;28;20038;-70
2023/03/08 04:16:32;;;;;;;10.00;6.20;;;;;;;;;;4992179;28;20100;-70
2023/03/08 04:19:11;;;;;;;11.05;6.30;;;;;;;;;;4995172;28;20211;-70
2023/03/08 04:21:39;;;;;;;23.48;8.43;;;;;;;;;;5006285;28;20038;-70
2023/03/08 04:24:06;;;;;;;26.75;10.52;;;;;;;;;;5012289;28;20451;-69
2023/03/08 04:26:32;;;;;;;27.15;12.13;;;;;;;;;;5034112;28;20025;-69
2023/03/08 04:28:58;;;;;;;26.13;12.15;;;;;;;;;;5021732;28;20041;-70
2023/03/08 04:31:27;;;;;;;19.15;10.35;;;;;;;;;;5012744;28;20030;-69
2023/03/08 04:33:54;;;;;;;17.60;10.30;;;;;;;;;;4996563;28;20026;-70
2023/03/08 04:36:21;;;;;;;25.25;10.45;;;;;;;;;;5011362;28;20026;-70
2023/03/08 04:38:48;;;;;;;28.33;10.93;;;;;;;;;;4979589;28;20033;-69
2023/03/08 04:41:15;;;;;;;18.35;10.00;;;;;;;;;;4996197;28;20104;-70
2023/03/08 04:43:50;;;;;;;16.05;10.30;;;;;;;;;;4996014;28;20064;-70
2023/03/08 04:46:22;;;;;;;18.00;10.52;;;;;;;;;;4995802;28;20038;-70
2023/03/08 04:48:51;;;;;;;21.13;10.55;;;;;;;;;;5012436;28;20030;-70
2023/03/08 04:51:17;;;;;;;20.55;9.55;;;;;;;;;;4994988;28;20482;-69
2023/03/08 04:53:45;;;;;;;18.10;9.55;;;;;;;;;;5011717;28;20060;-69
2023/03/08 04:56:13;;;;;;;19.08;9.50;;;;;;;;;;4995835;28;20061;-70
2023/03/08 04:58:40;;;;;;;25.25;9.02;;;;;;;;;;4995119;28;20526;-69
2023/03/08 05:01:18;;;;;;;16.85;7.60;;;;;;;;;;4994374;28;20045;-69
2023/03/08 05:03:48;;;;;;;13.95;6.90;;;;;;;;;;5008529;28;20057;-69
2023/03/08 05:06:16;;;;;;;17.02;9.18;;;;;;;;;;5011141;28;20083;-70
2023/03/08 05:08:42;;;;;;;24.13;9.32;;;;;;;;;;4990873;28;20026;-69
2023/03/08 05:11:09;;;;;;;21.58;8.60;;;;;;;;;;4993979;28;20040;-70
2023/03/08 05:13:37;;;;;;;15.15;8.80;;;;;;;;;;5032289;28;20041;-70
2023/03/08 05:16:06;;;;;;;15.32;8.85;;;;;;;;;;5004866;28;20034;-70
2023/03/08 05:18:32;;;;;;;12.98;8.00;;;;;;;;;;5002643;28;20112;-70
2023/03/08 05:21:01;;;;;;;15.00;7.35;;;;;;;;;;4994650;28;20117;-70
2023/03/08 05:23:27;;;;;;;15.45;7.40;;;;;;;;;;4994769;28;20077;-70
2023/03/08 05:25:55;;;;;;;18.60;7.78;;;;;;;;;;5027482;28;20049;-70
2023/03/08 05:28:23;;;;;;;17.65;7.05;;;;;;;;;;4993217;28;20113;-70
2023/03/08 05:30:49;;;;;;;16.98;6.78;;;;;;;;;;5018477;28;20033;-70
2023/03/08 05:33:16;;;;;;;21.17;9.18;;;;;;;;;;4992643;28;20413;-70
2023/03/08 05:35:42;;;;;;;17.25;7.20;;;;;;;;;;4994602;28;20145;-69
2023/03/08 05:38:08;;;;;;;18.45;6.90;;;;;;;;;;4996922;28;20468;-69
2023/03/08 05:40:36;;;;;;;15.27;6.97;;;;;;;;;;5012373;28;20105;-70
2023/03/08 05:43:02;;;;;;;25.45;7.85;;;;;;;;;;4993822;28;20025;-69
2023/03/08 05:45:29;;;;;;;26.38;16.30;;;;;;;;;;4995617;28;20130;-69
2023/03/08 05:47:54;;;;;;;20.88;9.73;;;;;;;;;;5011676;28;20026;-69
2023/03/08 05:50:21;;;;;;;16.90;7.47;;;;;;;;;;4995051;28;20034;-69
2023/03/08 05:52:50;;;;;;;13.27;6.65;;;;;;;;;;5010846;28;20047;-70
2023/03/08 05:55:21;;;;;;;12.18;6.20;;;;;;;;;;4995511;28;20053;-69
2023/03/08 05:57:47;;;;;;;11.52;6.30;;;;;;;;;;5013168;28;20033;-69
2023/03/08 06:00:13;;;;;;;16.58;6.43;;;;;;;;;;5005534;28;20022;-72
2023/03/08 06:02:45;;;;;;;10.65;6.75;;;;;;;;;;4994268;28;20044;-73
2023/03/08 06:05:12;;;;;;;30.52;7.10;;;;;;;;;;4994205;28;20037;-71
2023/03/08 06:07:38;;;;;;;17.27;6.18;;;;;;;;;;4993773;28;20026;-73
2023/03/08 06:10:09;;;;;;;17.63;7.40;;;;;;;;;;4991565;28;20046;-73
2023/03/08 06:12:37;;;;;;;12.27;6.88;;;;;;;;;;4994605;28;20061;-72
2023/03/08 06:15:06;;;;;;;20.10;6.10;;;;;;;;;;4994076;28;20030;-72
2023/03/08 06:17:34;;;;;;;15.73;7.03;;;;;;;;;;5010295;28;20048;-73
2023/03/08 06:20:00;;;;;;;14.23;5.68;;;;;;;;;;4994491;28;20360;-72
2023/03/08 06:22:26;;;;;;;24.55;7.57;;;;;;;;;;4993806;28;20047;-74
2023/03/08 06:24:53;;;;;;;28.27;11.82;;;;;;;;;;4997229;28;20118;-72
2023/03/08 06:27:29;;;;;;;38.97;14.18;;;;;;;;;;5015646;28;20419;-74
2023/03/08 06:29:58;;;;;;;82.30;26.00;;;;;;;;;;4994894;28;20491;-72
2023/03/08 06:32:23;;;;;;;41.85;20.40;;;;;;;;;;5008213;28;20037;-72
2023/03/08 06:34:50;;;;;;;32.85;14.10;;;;;;;;;;4977509;28;20041;-72
2023/03/08 06:37:17;;;;;;;28.17;12.35;;;;;;;;;;4993521;28;20081;-72
2023/03/08 06:39:43;;;;;;;21.75;10.52;;;;;;;;;;4993148;28;20467;-72
2023/03/08 06:42:08;;;;;;;21.17;10.43;;;;;;;;;;4993185;28;20061;-72
2023/03/08 06:44:34;;;;;;;18.23;9.50;;;;;;;;;;4993562;28;20033;-73
2023/03/08 06:47:00;;;;;;;20.45;9.80;;;;;;;;;;5011317;28;20084;-73
2023/03/08 06:49:26;;;;;;;18.02;10.25;;;;;;;;;;5009765;28;20088;-73
2023/03/08 06:51:52;;;;;;;18.05;9.80;;;;;;;;;;4992835;28;20038;-72
2023/03/08 06:54:18;;;;;;;20.35;10.10;;;;;;;;;;4992392;28;20060;-72
2023/03/08 06:56:46;;;;;;;19.35;9.73;;;;;;;;;;5010682;28;20598;-72
2023/03/08 06:59:13;;;;;;;20.58;10.52;;;;;;;;;;5005819;28;20077;-73
2023/03/08 07:01:39;;;;;;;19.92;9.93;;;;;;;;;;5004056;28;20025;-73
2023/03/08 07:04:06;;;;;;;19.25;9.82;;;;;;;;;;5011051;28;20135;-73
2023/03/08 07:06:31;;;;;;;17.88;10.45;;;;;;;;;;5017973;28;20022;-73
2023/03/08 07:08:57;;;;;;;15.88;10.05;;;;;;;;;;5004199;28;20558;-72
2023/03/08 07:11:25;;;;;;;15.90;9.38;;;;;;;;;;5002466;28;20096;-73
2023/03/08 07:13:51;;;;;;;22.88;12.07;;;;;;;;;;5010756;28;20110;-73
2023/03/08 07:16:17;;;;;;;17.95;11.18;;;;;;;;;;5010275;28;20057;-73
2023/03/08 07:18:43;;;;;;;16.33;8.73;;;;;;;;;;5009160;28;20029;-74
2023/03/08 07:21:09;;;;;;;15.15;8.35;;;;;;;;;;5003574;28;20042;-73
2023/03/08 07:23:35;;;;;;;17.90;8.93;;;;;;;;;;5002472;28;20492;-74
2023/03/08 07:26:05;;;;;;;12.80;8.05;;;;;;;;;;5011036;28;20060;-73
2023/03/08 07:28:31;;;;;;;18.33;7.55;;;;;;;;;;5010545;28;20085;-72
2023/03/08 07:30:57;;;;;;;16.90;7.78;;;;;;;;;;4992375;28;20102;-72
2023/03/08 07:33:23;;;;;;;14.23;7.78;;;;;;;;;;5008077;28;20116;-73
2023/03/08 07:35:48;;;;;;;12.52;7.63;;;;;;;;;;5007137;28;20026;-71
2023/03/08 07:38:15;;;;;;;13.27;7.25;;;;;;;;;;5010492;28;20030;-73
2023/03/08 07:40:41;;;;;;;13.30;8.35;;;;;;;;;;5009224;28;20022;-73
2023/03/08 07:43:07;;;;;;;10.45;6.68;;;;;;;;;;5010602;28;20033;-72
2023/03/08 07:45:58;;;;;;;12.75;6.90;;;;;;;;;;5005570;28;20030;-72
2023/03/08 07:48:24;;;;;;;17.42;7.93;;;;;;;;;;4992976;28;20041;-73
2023/03/08 07:50:49;;;;;;;16.08;6.45;;;;;;;;;;4993335;28;20061;-73
2023/03/08 07:53:15;;;;;;;10.93;6.07;;;;;;;;;;5013753;28;20061;-73
2023/03/08 07:55:41;;;;;;;11.18;5.65;;;;;;;;;;5014152;28;20341;-75
2023/03/08 07:58:07;;;;;;;16.92;7.13;;;;;;;;;;4996541;28;20476;-75
2023/03/08 08:00:33;;;;;;;13.85;7.20;;;;;;;;;;5013329;28;20045;-74
2023/03/08 08:02:58;;;;;;;14.60;6.15;;;;;;;;;;4979615;28;20048;-74
2023/03/08 08:05:25;;;;;;;19.73;7.60;;;;;;;;;;4979481;28;20058;-73
2023/03/08 08:07:52;;;;;;;11.93;5.50;;;;;;;;;;4996316;28;20446;-72
2023/03/08 08:10:18;;;;;;;12.07;5.40;;;;;;;;;;5013601;28;20088;-73
2023/03/08 08:12:44;;;;;;;9.48;4.95;;;;;;;;;;4996072;28;20048;-72
2023/03/08 08:15:10;;;;;;;9.15;4.65;;;;;;;;;;5014469;28;20399;-74
2023/03/08 08:17:35;;;;;;;11.95;5.43;;;;;;;;;;4996272;28;20488;-74
2023/03/08 08:20:01;;;;;;;10.10;4.65;;;;;;;;;;5014540;28;20120;-74
2023/03/08 08:22:27;;;;;;;10.57;4.78;;;;;;;;;;5012930;28;20037;-74
2023/03/08 08:24:56;;;;;;;9.43;5.00;;;;;;;;;;4995143;28;20387;-73
2023/03/08 08:27:21;;;;;;;20.83;6.55;;;;;;;;;;5012901;28;20156;-72
2023/03/08 08:29:49;;;;;;;14.95;5.10;;;;;;;;;;4995007;28;20106;-73
2023/03/08 08:32:15;;;;;;;9.40;5.18;;;;;;;;;;5012100;28;20041;-73
2023/03/08 08:34:41;;;;;;;10.43;6.43;;;;;;;;;;5013565;28;20022;-73
2023/03/08 08:37:06;;;;;;;6.90;4.53;;;;;;;;;;5012779;28;20455;-74
2023/03/08 08:39:32;;;;;;;9.65;4.05;;;;;;;;;;5010332;28;20480;-74
2023/03/08 08:41:58;;;;;;;8.32;4.10;;;;;;;;;;5009408;28;20499;-72
2023/03/08 08:44:23;;;;;;;10.30;4.25;;;;;;;;;;5013441;28;20048;-73
2023/03/08 08:46:49;;;;;;;7.75;4.43;;;;;;;;;;4996196;28;20087;-72
2023/03/08 08:49:15;;;;;;;10.23;4.70;;;;;;;;;;5012445;28;20022;-72
2023/03/08 08:51:41;;;;;;;10.55;4.88;;;;;;;;;;5011815;28;20496;-72
2023/03/08 08:54:08;;;;;;;5.85;3.55;;;;;;;;;;5011966;28;20032;-73
2023/03/08 08:56:34;;;;;;;15.00;5.20;;;;;;;;;;4994531;28;20026;-74
2023/03/08 08:59:01;;;;;;;6.68;4.10;;;;;;;;;;5001859;28;20071;-74
2023/03/08 09:01:30;;;;;;;6.70;3.75;;;;;;;;;;4994891;28;20038;-72
2023/03/08 09:03:56;;;;;;;11.65;3.78;;;;;;;;;;5010686;28;20022;-71
2023/03/08 09:06:24;;;;;;;8.55;4.53;;;;;;;;;;5014744;28;20077;-72
2023/03/08 09:08:53;;;;;;;6.90;4.07;;;;;;;;;;5011683;28;20042;-72
2023/03/08 09:11:20;;;;;;;9.30;4.80;;;;;;;;;;5011398;28;20036;-71
2023/03/08 09:13:45;;;;;;;11.68;6.28;;;;;;;;;;5011466;28;20025;-71
2023/03/08 09:16:32;;;;;;;11.57;5.40;;;;;;;;;;5011901;28;20030;-72
2023/03/08 09:19:00;;;;;;;5.70;4.00;;;;;;;;;;5023337;28;20037;-72
2023/03/08 09:21:27;;;;;;;7.45;3.90;;;;;;;;;;5010661;28;20025;-74
2023/03/08 09:23:54;;;;;;;9.82;5.28;;;;;;;;;;5011108;28;20041;-71
2023/03/08 09:26:38;;;;;;;9.57;4.68;;;;;;;;;;5006643;28;20514;-72
2023/03/08 09:29:06;;;;;;;8.95;4.22;;;;;;;;;;5009312;28;20030;-73
2023/03/08 09:31:34;;;;;;;7.30;4.07;;;;;;;;;;5004450;28;20034;-72
2023/03/08 09:34:03;;;;;;;7.30;3.60;;;;;;;;;;5008890;28;20029;-73
2023/03/08 09:36:29;;;;;;;10.02;3.80;;;;;;;;;;5010174;28;20444;-72
2023/03/08 09:38:55;;;;;;;11.52;4.50;;;;;;;;;;4994403;28;20026;-71
2023/03/08 09:41:44;;;;;;;6.10;3.45;;;;;;;;;;5010229;28;20029;-73
2023/03/08 09:44:44;;;;;;;9.80;4.60;;;;;;;;;;5002165;28;20046;-72
2023/03/08 09:47:25;;;;;;;14.27;6.15;;;;;;;;;;5005193;28;20031;-73
2023/03/08 09:49:54;;;;;;;7.07;3.95;;;;;;;;;;5010777;28;20033;-74
2023/03/08 09:52:41;;;;;;;6.55;3.40;;;;;;;;;;5006522;28;20069;-71
2023/03/08 09:55:28;;;;;;;6.00;3.60;;;;;;;;;;4994792;28;20030;-74
2023/03/08 09:58:01;;;;;;;5.93;3.53;;;;;;;;;;5023239;28;20455;-73
2023/03/08 10:00:32;;;;;;;8.57;3.88;;;;;;;;;;5009120;28;20488;-74
2023/03/08 10:03:41;;;;;;;7.90;2.92;;;;;;;;;;5010139;28;20100;-72
2023/03/08 10:06:24;;;;;;;9.02;3.10;;;;;;;;;;5005164;28;20433;-72
2023/03/08 10:09:22;;;;;;;;;;;;;;;;;;5008473;28;20120;-73
2023/03/08 10:12:03;;;;;;;9.98;2.80;;;;;;;;;;4977704;28;19913;-73
2023/03/08 10:14:36;;;;;;;10.50;3.58;;;;;;;;;;5007931;28;20102;-73
2023/03/08 10:17:13;;;;;;;7.05;3.47;;;;;;;;;;5007207;28;20038;-73
2023/03/08 10:19:56;;;;;;;10.15;3.13;;;;;;;;;;5005464;28;20400;-73
2023/03/08 10:22:27;;;;;;;6.18;2.67;;;;;;;;;;5007680;28;20058;-73
2023/03/08 10:25:00;;;;;;;5.32;2.47;;;;;;;;;;5009951;28;20045;-73
2023/03/08 10:27:30;;;;;;;9.43;2.60;;;;;;;;;;4990061;28;20180;-74
2023/03/08 10:29:58;;;;;;;4.80;2.22;;;;;;;;;;5009603;28;20120;-72
2023/03/08 10:32:26;;;;;;;5.60;2.58;;;;;;;;;;5009889;28;20029;-74
2023/03/08 10:34:58;;;;;;;6.43;2.50;;;;;;;;;;4990614;28;20100;-74
2023/03/08 10:37:30;;;;;;;5.10;2.55;;;;;;;;;;5008705;28;20120;-73
2023/03/08 10:40:02;;;;;;;5.50;2.05;;;;;;;;;;4992303;28;20044;-72
2023/03/08 10:42:28;;;;;;;9.95;3.03;;;;;;;;;;5007332;28;20026;-73
2023/03/08 10:45:13;;;;;;;5.65;2.00;;;;;;;;;;5011946;28;20021;-73
2023/03/08 10:47:39;;;;;;;5.28;2.10;;;;;;;;;;5009079;28;20025;-74
2023/03/08 10:50:16;;;;;;;10.20;2.25;;;;;;;;;;5008676;28;20471;-74
2023/03/08 10:52:46;;;;;;;5.10;2.10;;;;;;;;;;4997376;28;20033;-73
2023/03/08 10:55:13;;;;;;;2.75;1.58;;;;;;;;;;5009007;28;20037;-73
2023/03/08 10:57:44;;;;;;;4.93;1.70;;;;;;;;;;5006876;28;20022;-74
2023/03/08 11:00:19;;;;;;;4.22;1.52;;;;;;;;;;5007556;28;20058;-74
2023/03/08 11:02:48;;;;;;;4.03;1.77;;;;;;;;;;5009698;28;20026;-73
2023/03/08 11:05:25;;;;;;;4.18;1.60;;;;;;;;;;5007658;28;20033;-73
2023/03/08 11:07:53;;;;;;;8.40;2.38;;;;;;;;;;5005141;28;20449;-73
2023/03/08 11:10:24;;;;;;;3.80;1.65;;;;;;;;;;5009262;28;20037;-73
2023/03/08 11:13:18;;;;;;;2.92;1.30;;;;;;;;;;5009116;28;20029;-73
2023/03/08 11:16:02;;;;;;;5.93;2.15;;;;;;;;;;5005530;28;20146;-74
2023/03/08 11:18:30;;;;;;;;;;;;;;;;;;5009075;28;20030;-73
2023/03/08 11:21:05;;;;;;;6.47;1.40;;;;;;;;;;5007561;28;19917;-73
2023/03/08 11:23:43;;;;;;;3.35;1.52;;;;;;;;;;5006598;28;20033;-73
2023/03/08 11:26:25;;;;;;;4.30;1.38;;;;;;;;;;5009562;28;20101;-73
2023/03/08 11:29:13;;;;;;;2.58;1.08;;;;;;;;;;4994006;28;20495;-73
2023/03/08 11:31:53;;;;;;;4.28;1.23;;;;;;;;;;5013418;28;20245;-74
2023/03/08 11:34:29;;;;;;;2.70;1.25;;;;;;;;;;4993736;28;20045;-73
2023/03/08 11:37:12;;;;;;;2.63;1.27;;;;;;;;;;5012678;28;20443;-73
2023/03/08 11:39:58;;;;;;;2.95;1.20;;;;;;;;;;4994166;28;20037;-74
2023/03/08 11:42:41;;;;;;;4.03;1.48;;;;;;;;;;5007729;28;20057;-73
2023/03/08 11:45:22;;;;;;;6.43;1.15;;;;;;;;;;5012609;28;20591;-74
2023/03/08 11:48:03;;;;;;;7.95;1.50;;;;;;;;;;5012087;28;20048;-74
2023/03/08 11:50:41;;;;;;;3.35;1.10;;;;;;;;;;4996103;28;20030;-73
2023/03/08 11:53:29;;;;;;;1.38;0.80;;;;;;;;;;5012142;28;20124;-73
2023/03/08 11:56:03;;;;;;;5.45;1.88;;;;;;;;;;5011202;28;20085;-74
2023/03/08 11:58:33;;;;;;;3.70;1.20;;;;;;;;;;5008374;28;20030;-73
2023/03/08 12:01:01;;;;;;;2.72;1.60;;;;;;;;;;5013611;28;20044;-72
2023/03/08 12:03:35;;;;;;;6.75;2.05;;;;;;;;;;4997591;28;20065;-73
2023/03/08 12:06:13;;;;;;;9.95;2.45;;;;;;;;;;5010281;28;20025;-73
2023/03/08 12:08:47;;;;;;;4.07;1.23;;;;;;;;;;5014094;28;20048;-73
2023/03/08 12:11:28;;;;;;;4.50;1.75;;;;;;;;;;5013312;28;20034;-73
2023/03/08 12:14:30;;;;;;;3.40;1.13;;;;;;;;;;5010934;28;20037;-73
2023/03/08 12:17:05;;;;;;;4.88;1.60;;;;;;;;;;5009356;28;20517;-73
2023/03/08 12:19:41;;;;;;;3.47;2.08;;;;;;;;;;5024611;28;20308;-72
2023/03/08 12:22:16;;;;;;;2.70;1.20;;;;;;;;;;5012074;28;20026;-73
2023/03/08 12:25:40;;;;;;;2.53;1.40;;;;;;;;;;5012851;28;20050;-73
2023/03/08 12:28:24;;;;;;;2.90;1.35;;;;;;;;;;4978222;28;20092;-72
2023/03/08 12:30:58;;;;;;;;;;;;;;;;;;5006951;28;20037;-73
2023/03/08 12:33:26;;;;;;;4.18;2.00;;;;;;;;;;5011846;28;19941;-73
2023/03/08 12:35:55;;;;;;;4.72;1.85;;;;;;;;;;5008661;28;20483;-73
2023/03/08 12:38:21;;;;;;;1.90;1.00;;;;;;;;;;4998462;28;20096;-73
2023/03/08 12:40:50;;;;;;;4.55;1.65;;;;;;;;;;5011624;28;20668;-73
2023/03/08 12:43:19;;;;;;;2.97;1.40;;;;;;;;;;5010344;28;20026;-73
2023/03/08 12:46:02;;;;;;;5.00;1.63;;;;;;;;;;5003627;28;20038;-73
2023/03/08 12:48:37;;;;;;;3.03;1.70;;;;;;;;;;4989681;28;20109;-74
2023/03/08 12:51:10;;;;;;;2.60;1.50;;;;;;;;;;5004267;28;20053;-74
2023/03/08 12:53:36;;;;;;;1.65;0.93;;;;;;;;;;5001911;28;20618;-73
2023/03/08 12:56:15;;;;;;;3.13;2.58;;;;;;;;;;5008136;28;20100;-72
2023/03/08 12:58:49;;;;;;;3.38;0.95;;;;;;;;;;5005728;28;20117;-74
2023/03/08 13:01:38;;;;;;;3.20;2.10;;;;;;;;;;5009732;28;20440;-74
2023/03/08 13:04:25;;;;;;;1.88;0.90;;;;;;;;;;5009086;28;20506;-73
2023/03/08 13:06:50;;;;;;;4.68;1.05;;;;;;;;;;4989601;28;20045;-74
2023/03/08 13:09:31;;;;;;;4.22;1.27;;;;;;;;;;5011026;28;20022;-73
2023/03/08 13:12:12;;;;;;;4.07;1.30;;;;;;;;;;5011470;28;20030;-73
2023/03/08 13:14:40;;;;;;;2.97;1.90;;;;;;;;;;4992988;28;20455;-72
2023/03/08 13:17:28;;;;;;;3.47;1.73;;;;;;;;;;5012640;28;20399;-74
2023/03/08 13:20:10;;;;;;;3.25;1.10;;;;;;;;;;5007344;28;20025;-73
2023/03/08 13:22:47;;;;;;;5.60;1.27;;;;;;;;;;4961218;28;1432847;-72
2023/03/08 13:25:55;;;;;;;10.27;1.25;;;;;;;;;;5011249;28;20037;-74
2023/03/08 13:28:24;;;;;;;11.35;2.40;;;;;;;;;;5009528;28;20030;-73
2023/03/08 13:30:59;;;;;;;4.03;1.38;;;;;;;;;;4998017;28;20033;-71
2023/03/08 13:33:46;;;;;;;2.33;1.30;;;;;;;;;;5009763;28;20037;-74
2023/03/08 13:36:22;;;;;;;4.38;1.60;;;;;;;;;;5007361;28;20484;-73
2023/03/08 13:39:22;;;;;;;2.75;1.30;;;;;;;;;;5009629;28;20033;-72
2023/03/08 13:41:48;;;;;;;3.47;1.67;;;;;;;;;;5009266;28;20037;-73
2023/03/08 13:44:23;;;;;;;6.03;1.60;;;;;;;;;;5011370;28;20479;-73
2023/03/08 13:46:59;;;;;;;6.22;1.60;;;;;;;;;;5010932;28;20026;-74
2023/03/08 13:49:37;;;;;;;3.63;2.03;;;;;;;;;;5019491;28;20042;-74
2023/03/08 13:52:12;;;;;;;5.60;2.17;;;;;;;;;;5011148;28;20081;-73
2023/03/08 13:54:45;;;;;;;3.35;1.55;;;;;;;;;;5011392;28;20062;-73
2023/03/08 13:57:24;;;;;;;7.10;1.90;;;;;;;;;;5008661;28;20515;-73
2023/03/08 13:59:55;;;;;;;4.30;1.42;;;;;;;;;;5010726;28;20352;-73
2023/03/08 14:02:29;;;;;;;4.20;1.67;;;;;;;;;;5022500;28;20421;-72
2023/03/08 14:04:55;;;;;;;2.00;1.30;;;;;;;;;;5010525;28;20026;-73
2023/03/08 14:07:30;;;;;;;2.70;1.60;;;;;;;;;;4993243;28;20029;-74
2023/03/08 14:09:57;;;;;;;9.10;1.40;;;;;;;;;;5010548;28;20402;-72
2023/03/08 14:12:28;;;;;;;2.83;1.52;;;;;;;;;;5011052;28;20026;-73
2023/03/08 14:15:03;;;;;;;5.90;1.90;;;;;;;;;;5011499;28;20033;-73
2023/03/08 14:17:32;;;;;;;13.63;1.90;;;;;;;;;;5009064;28;20030;-72
2023/03/08 14:20:05;;;;;;;3.58;1.65;;;;;;;;;;5011302;28;20030;-74
2023/03/08 14:22:36;;;;;;;4.85;1.70;;;;;;;;;;4995299;28;20042;-72
2023/03/08 14:25:03;;;;;;;5.25;1.80;;;;;;;;;;5010315;28;20030;-72
2023/03/08 14:27:44;;;;;;;3.95;1.40;;;;;;;;;;5011393;28;20380;-73
2023/03/08 14:30:20;;;;;;;4.07;1.88;;;;;;;;;;5002989;28;20116;-74
2023/03/08 14:33:30;;;;;;;4.72;1.60;;;;;;;;;;5009258;28;20109;-73
2023/03/08 14:35:58;;;;;;;5.68;1.50;;;;;;;;;;4975998;28;20047;-73
2023/03/08 14:38:30;;;;;;;5.90;2.63;;;;;;;;;;5003319;28;20048;-73
2023/03/08 14:40:57;;;;;;;4.47;3.45;;;;;;;;;;5011157;28;20452;-74
2023/03/08 14:43:24;;;;;;;6.03;3.63;;;;;;;;;;5009261;28;20021;-73
2023/03/08 14:45:57;;;;;;;5.22;2.33;;;;;;;;;;5006527;28;20037;-74
2023/03/08 14:48:28;;;;;;;4.05;2.20;;;;;;;;;;5004830;28;20036;-73
2023/03/08 14:51:01;;;;;;;3.90;1.95;;;;;;;;;;5009297;28;20491;-73
2023/03/08 14:53:36;;;;;;;4.65;2.13;;;;;;;;;;5009182;28;20048;-74